sensor_id;sensor_type;location;lat;lon;timestamp;temperature;humidity
5705;DHT22;2877;48.238;11.160;2023-09-30T00:00:07;15.60;99.90
5705;DHT22;2877;48.238;11.160;2023-09-30T00:02:35;15.70;99.90
5705;DHT22;2877;48.238;11.160;2023-09-30T00:05:00;15.80;99.90
5705;DHT22;2877;48.238;11.160;2023-09-30T00:07:26;15.80;99.90
5705;DHT22;2877;48.238;11.160;2023-09-30T00:09:52;15.80;99.90
5705;DHT22;2877;48.238;11.160;2023-09-30T00:12:17;15.90;99.90
5705;DHT22;2877;48.238;11.160;2023-09-30T00:14:43;16.00;99.90
5705;DHT22;2877;48.238;11.160;2023-09-30T00:17:08;16.00;99.90
5705;DHT22;2877;48.238;11.160;2023-09-30T00:19:34;16.00;99.90
5705;DHT22;2877;48.238;11.160;2023-09-30T00:22:00;16.00;99.90
5705;DHT22;2877;48.238;11.160;2023-09-30T00:24:26;16.00;99.90
5705;DHT22;2877;48.238;11.160;2023-09-30T00:26:51;16.00;99.90
5705;DHT22;2877;48.238;11.160;2023-09-30T00:29:17;16.00;99.90
5705;DHT22;2877;48.238;11.160;2023-09-30T00:31:43;16.00;99.90
5705;DHT22;2877;48.238;11.160;2023-09-30T00:34:09;16.00;99.90
5705;DHT22;2877;48.238;11.160;2023-09-30T00:36:35;16.00;99.90
5705;DHT22;2877;48.238;11.160;2023-09-30T00:39:00;16.00;99.90
5705;DHT22;2877;48.238;11.160;2023-09-30T00:41:26;16.00;99.90
5705;DHT22;2877;48.238;11.160;2023-09-30T00:43:52;16.10;99.90
5705;DHT22;2877;48.238;11.160;2023-09-30T00:46:27;16.10;99.90
5705;DHT22;2877;48.238;11.160;2023-09-30T00:48:55;16.10;99.90
5705;DHT22;2877;48.238;11.160;2023-09-30T00:51:21;16.10;99.90
5705;DHT22;2877;48.238;11.160;2023-09-30T00:53:47;16.10;99.90
5705;DHT22;2877;48.238;11.160;2023-09-30T00:56:14;16.10;99.90
5705;DHT22;2877;48.238;11.160;2023-09-30T00:58:40;16.10;99.90
5705;DHT22;2877;48.238;11.160;2023-09-30T01:01:06;16.10;99.90
5705;DHT22;2877;48.238;11.160;2023-09-30T01:03:33;16.10;99.90
5705;DHT22;2877;48.238;11.160;2023-09-30T01:05:59;16.10;99.90
5705;DHT22;2877;48.238;11.160;2023-09-30T01:08:26;16.10;99.90
5705;DHT22;2877;48.238;11.160;2023-09-30T01:10:53;16.10;99.90
5705;DHT22;2877;48.238;11.160;2023-09-30T01:13:18;16.10;99.90
5705;DHT22;2877;48.238;11.160;2023-09-30T01:15:44;16.10;99.90
5705;DHT22;2877;48.238;11.160;2023-09-30T01:18:10;16.10;99.90
5705;DHT22;2877;48.238;11.160;2023-09-30T01:20:36;16.10;99.90
5705;DHT22;2877;48.238;11.160;2023-09-30T01:23:02;16.10;99.90
5705;DHT22;2877;48.238;11.160;2023-09-30T01:25:29;16.10;99.90
5705;DHT22;2877;48.238;11.160;2023-09-30T01:27:55;16.10;99.90
5705;DHT22;2877;48.238;11.160;2023-09-30T01:30:21;16.10;99.90
5705;DHT22;2877;48.238;11.160;2023-09-30T01:32:48;16.10;99.90
5705;DHT22;2877;48.238;11.160;2023-09-30T01:35:14;16.10;99.90
5705;DHT22;2877;48.238;11.160;2023-09-30T01:37:39;16.00;99.90
5705;DHT22;2877;48.238;11.160;2023-09-30T01:40:07;16.00;99.90
5705;DHT22;2877;48.238;11.160;2023-09-30T01:42:37;16.00;99.90
5705;DHT22;2877;48.238;11.160;2023-09-30T01:45:03;16.00;99.90
5705;DHT22;2877;48.238;11.160;2023-09-30T01:47:29;15.90;99.90
5705;DHT22;2877;48.238;11.160;2023-09-30T01:49:54;15.90;99.90
5705;DHT22;2877;48.238;11.160;2023-09-30T01:52:21;15.80;99.90
5705;DHT22;2877;48.238;11.160;2023-09-30T01:54:46;15.80;99.90
5705;DHT22;2877;48.238;11.160;2023-09-30T01:57:12;15.70;99.90
5705;DHT22;2877;48.238;11.160;2023-09-30T01:59:37;15.70;99.90
5705;DHT22;2877;48.238;11.160;2023-09-30T02:02:03;15.60;99.90
5705;DHT22;2877;48.238;11.160;2023-09-30T02:04:28;15.60;99.90
5705;DHT22;2877;48.238;11.160;2023-09-30T02:06:54;15.50;99.90
5705;DHT22;2877;48.238;11.160;2023-09-30T02:09:20;15.50;99.90
5705;DHT22;2877;48.238;11.160;2023-09-30T02:11:45;15.50;99.90
5705;DHT22;2877;48.238;11.160;2023-09-30T02:14:11;15.50;99.90
5705;DHT22;2877;48.238;11.160;2023-09-30T02:16:38;15.50;99.90
5705;DHT22;2877;48.238;11.160;2023-09-30T02:19:04;15.50;99.90
5705;DHT22;2877;48.238;11.160;2023-09-30T02:21:29;15.50;99.90
5705;DHT22;2877;48.238;11.160;2023-09-30T02:23:55;15.50;99.90
5705;DHT22;2877;48.238;11.160;2023-09-30T02:26:21;15.50;99.90
5705;DHT22;2877;48.238;11.160;2023-09-30T02:28:47;15.50;99.90
5705;DHT22;2877;48.238;11.160;2023-09-30T02:31:12;15.50;99.90
5705;DHT22;2877;48.238;11.160;2023-09-30T02:33:38;15.50;99.90
5705;DHT22;2877;48.238;11.160;2023-09-30T02:36:07;15.40;99.90
5705;DHT22;2877;48.238;11.160;2023-09-30T02:38:33;15.40;99.90
5705;DHT22;2877;48.238;11.160;2023-09-30T02:40:58;15.40;99.90
5705;DHT22;2877;48.238;11.160;2023-09-30T02:43:24;15.30;99.90
5705;DHT22;2877;48.238;11.160;2023-09-30T02:45:49;15.30;99.90
5705;DHT22;2877;48.238;11.160;2023-09-30T02:48:15;15.30;99.90
5705;DHT22;2877;48.238;11.160;2023-09-30T02:50:44;15.30;99.90
5705;DHT22;2877;48.238;11.160;2023-09-30T02:53:11;15.30;99.90
5705;DHT22;2877;48.238;11.160;2023-09-30T02:55:38;15.30;99.90
5705;DHT22;2877;48.238;11.160;2023-09-30T02:58:04;15.20;99.90
5705;DHT22;2877;48.238;11.160;2023-09-30T03:00:29;15.20;99.90
5705;DHT22;2877;48.238;11.160;2023-09-30T03:03:00;15.20;99.90
5705;DHT22;2877;48.238;11.160;2023-09-30T03:05:26;15.20;99.90
5705;DHT22;2877;48.238;11.160;2023-09-30T03:07:53;15.20;99.90
5705;DHT22;2877;48.238;11.160;2023-09-30T03:10:20;15.20;99.90
5705;DHT22;2877;48.238;11.160;2023-09-30T03:12:49;15.20;99.90
5705;DHT22;2877;48.238;11.160;2023-09-30T03:15:15;15.10;99.90
5705;DHT22;2877;48.238;11.160;2023-09-30T03:17:41;15.10;99.90
5705;DHT22;2877;48.238;11.160;2023-09-30T03:20:08;15.10;99.90
5705;DHT22;2877;48.238;11.160;2023-09-30T03:22:38;15.10;99.90
5705;DHT22;2877;48.238;11.160;2023-09-30T03:25:04;15.10;99.90
5705;DHT22;2877;48.238;11.160;2023-09-30T03:27:33;15.10;99.90
5705;DHT22;2877;48.238;11.160;2023-09-30T03:29:59;15.10;99.90
5705;DHT22;2877;48.238;11.160;2023-09-30T03:32:26;15.10;99.90
5705;DHT22;2877;48.238;11.160;2023-09-30T03:34:52;15.10;99.90
5705;DHT22;2877;48.238;11.160;2023-09-30T03:37:18;15.10;99.90
5705;DHT22;2877;48.238;11.160;2023-09-30T03:39:43;15.10;99.90
5705;DHT22;2877;48.238;11.160;2023-09-30T03:42:09;15.10;99.90
5705;DHT22;2877;48.238;11.160;2023-09-30T03:44:37;15.10;99.90
5705;DHT22;2877;48.238;11.160;2023-09-30T03:47:04;15.20;99.90
5705;DHT22;2877;48.238;11.160;2023-09-30T03:49:30;15.20;99.90
5705;DHT22;2877;48.238;11.160;2023-09-30T03:51:56;15.10;99.90
5705;DHT22;2877;48.238;11.160;2023-09-30T03:54:23;15.10;99.90
5705;DHT22;2877;48.238;11.160;2023-09-30T03:56:48;15.10;99.90
5705;DHT22;2877;48.238;11.160;2023-09-30T03:59:14;15.10;99.90
5705;DHT22;2877;48.238;11.160;2023-09-30T04:01:41;15.00;99.90
5705;DHT22;2877;48.238;11.160;2023-09-30T04:04:08;15.00;99.90
5705;DHT22;2877;48.238;11.160;2023-09-30T04:06:35;15.00;99.90
5705;DHT22;2877;48.238;11.160;2023-09-30T04:09:04;15.00;99.90
5705;DHT22;2877;48.238;11.160;2023-09-30T04:11:35;15.00;99.90
5705;DHT22;2877;48.238;11.160;2023-09-30T04:14:01;15.00;99.90
5705;DHT22;2877;48.238;11.160;2023-09-30T04:16:26;15.00;99.90
5705;DHT22;2877;48.238;11.160;2023-09-30T04:18:54;15.00;99.90
5705;DHT22;2877;48.238;11.160;2023-09-30T04:21:20;14.90;99.90
5705;DHT22;2877;48.238;11.160;2023-09-30T04:23:46;14.90;99.90
5705;DHT22;2877;48.238;11.160;2023-09-30T04:26:12;14.90;99.90
5705;DHT22;2877;48.238;11.160;2023-09-30T04:28:38;14.80;99.90
5705;DHT22;2877;48.238;11.160;2023-09-30T04:31:03;14.80;99.90
5705;DHT22;2877;48.238;11.160;2023-09-30T04:33:30;14.80;99.90
5705;DHT22;2877;48.238;11.160;2023-09-30T04:35:55;14.70;99.90
5705;DHT22;2877;48.238;11.160;2023-09-30T04:38:21;14.70;99.90
5705;DHT22;2877;48.238;11.160;2023-09-30T04:40:46;14.60;99.90
5705;DHT22;2877;48.238;11.160;2023-09-30T04:43:17;14.60;99.90
5705;DHT22;2877;48.238;11.160;2023-09-30T04:45:42;14.60;99.90
5705;DHT22;2877;48.238;11.160;2023-09-30T04:48:08;14.60;99.90
5705;DHT22;2877;48.238;11.160;2023-09-30T04:50:34;14.60;99.90
5705;DHT22;2877;48.238;11.160;2023-09-30T04:52:59;14.60;99.90
5705;DHT22;2877;48.238;11.160;2023-09-30T04:55:25;14.60;99.90
5705;DHT22;2877;48.238;11.160;2023-09-30T04:57:51;14.50;99.90
5705;DHT22;2877;48.238;11.160;2023-09-30T05:00:19;14.50;99.90
5705;DHT22;2877;48.238;11.160;2023-09-30T05:02:51;14.50;99.90
5705;DHT22;2877;48.238;11.160;2023-09-30T05:05:18;14.50;99.90
5705;DHT22;2877;48.238;11.160;2023-09-30T05:07:44;14.50;99.90
5705;DHT22;2877;48.238;11.160;2023-09-30T05:10:11;14.50;99.90
5705;DHT22;2877;48.238;11.160;2023-09-30T05:12:44;14.50;99.90
5705;DHT22;2877;48.238;11.160;2023-09-30T05:15:13;14.50;99.90
5705;DHT22;2877;48.238;11.160;2023-09-30T05:17:44;14.40;99.90
5705;DHT22;2877;48.238;11.160;2023-09-30T05:20:10;14.40;99.90
5705;DHT22;2877;48.238;11.160;2023-09-30T05:22:38;14.30;99.90
5705;DHT22;2877;48.238;11.160;2023-09-30T05:25:06;14.20;99.90
5705;DHT22;2877;48.238;11.160;2023-09-30T05:27:32;14.20;99.90
5705;DHT22;2877;48.238;11.160;2023-09-30T05:29:58;14.10;99.90
5705;DHT22;2877;48.238;11.160;2023-09-30T05:32:23;14.00;99.90
5705;DHT22;2877;48.238;11.160;2023-09-30T05:34:51;14.10;99.90
5705;DHT22;2877;48.238;11.160;2023-09-30T05:37:18;14.00;99.90
5705;DHT22;2877;48.238;11.160;2023-09-30T05:39:47;14.10;99.90
5705;DHT22;2877;48.238;11.160;2023-09-30T05:42:15;14.10;99.90
5705;DHT22;2877;48.238;11.160;2023-09-30T05:44:40;14.20;99.90
5705;DHT22;2877;48.238;11.160;2023-09-30T05:47:07;14.20;99.90
5705;DHT22;2877;48.238;11.160;2023-09-30T05:49:33;14.30;99.90
5705;DHT22;2877;48.238;11.160;2023-09-30T05:51:59;14.30;99.90
5705;DHT22;2877;48.238;11.160;2023-09-30T05:54:24;14.30;99.90
5705;DHT22;2877;48.238;11.160;2023-09-30T05:56:50;14.40;99.90
5705;DHT22;2877;48.238;11.160;2023-09-30T05:59:16;14.40;99.90
5705;DHT22;2877;48.238;11.160;2023-09-30T06:01:41;14.30;99.90
5705;DHT22;2877;48.238;11.160;2023-09-30T06:04:08;14.30;99.90
5705;DHT22;2877;48.238;11.160;2023-09-30T06:06:33;14.30;99.90
5705;DHT22;2877;48.238;11.160;2023-09-30T06:08:59;14.30;99.90
5705;DHT22;2877;48.238;11.160;2023-09-30T06:11:25;14.30;99.90
5705;DHT22;2877;48.238;11.160;2023-09-30T06:13:57;14.30;99.90
5705;DHT22;2877;48.238;11.160;2023-09-30T06:16:27;14.40;99.90
5705;DHT22;2877;48.238;11.160;2023-09-30T06:18:53;14.40;99.90
5705;DHT22;2877;48.238;11.160;2023-09-30T06:21:20;14.40;99.90
5705;DHT22;2877;48.238;11.160;2023-09-30T06:23:49;14.50;99.90
5705;DHT22;2877;48.238;11.160;2023-09-30T06:26:17;14.50;99.90
5705;DHT22;2877;48.238;11.160;2023-09-30T06:28:43;14.50;99.90
5705;DHT22;2877;48.238;11.160;2023-09-30T06:31:09;14.60;99.90
5705;DHT22;2877;48.238;11.160;2023-09-30T06:33:39;14.60;99.90
5705;DHT22;2877;48.238;11.160;2023-09-30T06:36:09;14.60;99.90
5705;DHT22;2877;48.238;11.160;2023-09-30T06:38:34;14.70;99.90
5705;DHT22;2877;48.238;11.160;2023-09-30T06:41:02;14.80;99.90
5705;DHT22;2877;48.238;11.160;2023-09-30T06:43:27;14.90;99.90
5705;DHT22;2877;48.238;11.160;2023-09-30T06:45:53;14.90;99.90
5705;DHT22;2877;48.238;11.160;2023-09-30T06:48:21;14.90;99.90
5705;DHT22;2877;48.238;11.160;2023-09-30T06:50:48;15.00;99.90
5705;DHT22;2877;48.238;11.160;2023-09-30T06:53:15;15.10;99.90
5705;DHT22;2877;48.238;11.160;2023-09-30T06:55:42;15.10;99.90
5705;DHT22;2877;48.238;11.160;2023-09-30T06:58:09;15.20;99.90
5705;DHT22;2877;48.238;11.160;2023-09-30T07:00:36;15.20;99.90
5705;DHT22;2877;48.238;11.160;2023-09-30T07:03:02;15.20;99.90
5705;DHT22;2877;48.238;11.160;2023-09-30T07:05:28;15.20;99.90
5705;DHT22;2877;48.238;11.160;2023-09-30T07:07:54;15.20;99.90
5705;DHT22;2877;48.238;11.160;2023-09-30T07:10:20;15.20;99.90
5705;DHT22;2877;48.238;11.160;2023-09-30T07:12:45;15.30;99.90
5705;DHT22;2877;48.238;11.160;2023-09-30T07:15:11;15.30;99.90
5705;DHT22;2877;48.238;11.160;2023-09-30T07:17:37;15.40;99.90
5705;DHT22;2877;48.238;11.160;2023-09-30T07:20:04;15.50;99.90
5705;DHT22;2877;48.238;11.160;2023-09-30T07:22:30;15.60;99.90
5705;DHT22;2877;48.238;11.160;2023-09-30T07:24:57;15.60;99.90
5705;DHT22;2877;48.238;11.160;2023-09-30T07:27:23;15.60;99.90
5705;DHT22;2877;48.238;11.160;2023-09-30T07:29:49;15.50;99.90
5705;DHT22;2877;48.238;11.160;2023-09-30T07:32:15;15.40;99.90
5705;DHT22;2877;48.238;11.160;2023-09-30T07:34:40;15.30;99.90
5705;DHT22;2877;48.238;11.160;2023-09-30T07:37:06;15.40;99.90
5705;DHT22;2877;48.238;11.160;2023-09-30T07:39:31;15.40;99.90
5705;DHT22;2877;48.238;11.160;2023-09-30T07:41:57;15.40;99.90
5705;DHT22;2877;48.238;11.160;2023-09-30T07:44:23;15.50;99.90
5705;DHT22;2877;48.238;11.160;2023-09-30T07:46:48;15.60;99.90
5705;DHT22;2877;48.238;11.160;2023-09-30T07:49:14;15.70;99.90
5705;DHT22;2877;48.238;11.160;2023-09-30T07:51:40;15.80;99.90
5705;DHT22;2877;48.238;11.160;2023-09-30T07:54:06;15.90;99.90
5705;DHT22;2877;48.238;11.160;2023-09-30T07:56:31;16.20;99.90
5705;DHT22;2877;48.238;11.160;2023-09-30T07:58:57;16.00;99.90
5705;DHT22;2877;48.238;11.160;2023-09-30T08:01:23;16.10;99.90
5705;DHT22;2877;48.238;11.160;2023-09-30T08:03:48;16.20;99.90
5705;DHT22;2877;48.238;11.160;2023-09-30T08:06:14;16.10;99.90
5705;DHT22;2877;48.238;11.160;2023-09-30T08:08:40;16.00;99.90
5705;DHT22;2877;48.238;11.160;2023-09-30T08:11:06;16.10;99.90
5705;DHT22;2877;48.238;11.160;2023-09-30T08:13:32;16.20;99.90
5705;DHT22;2877;48.238;11.160;2023-09-30T08:15:59;16.20;99.90
5705;DHT22;2877;48.238;11.160;2023-09-30T08:18:24;16.30;99.90
5705;DHT22;2877;48.238;11.160;2023-09-30T08:20:50;16.40;99.90
5705;DHT22;2877;48.238;11.160;2023-09-30T08:23:16;16.60;99.90
5705;DHT22;2877;48.238;11.160;2023-09-30T08:25:41;16.70;99.90
5705;DHT22;2877;48.238;11.160;2023-09-30T08:28:07;16.70;99.90
5705;DHT22;2877;48.238;11.160;2023-09-30T08:30:35;16.70;99.90
5705;DHT22;2877;48.238;11.160;2023-09-30T08:33:01;16.60;99.90
5705;DHT22;2877;48.238;11.160;2023-09-30T08:35:29;16.60;99.90
5705;DHT22;2877;48.238;11.160;2023-09-30T08:37:54;16.80;99.90
5705;DHT22;2877;48.238;11.160;2023-09-30T08:40:21;16.90;99.90
5705;DHT22;2877;48.238;11.160;2023-09-30T08:42:51;16.80;99.90
5705;DHT22;2877;48.238;11.160;2023-09-30T08:45:18;16.70;99.90
5705;DHT22;2877;48.238;11.160;2023-09-30T08:47:44;16.70;99.90
5705;DHT22;2877;48.238;11.160;2023-09-30T08:50:10;16.80;99.90
5705;DHT22;2877;48.238;11.160;2023-09-30T08:52:41;16.90;99.90
5705;DHT22;2877;48.238;11.160;2023-09-30T08:55:11;16.80;99.90
5705;DHT22;2877;48.238;11.160;2023-09-30T08:57:38;16.70;99.90
5705;DHT22;2877;48.238;11.160;2023-09-30T09:00:12;16.90;99.90
5705;DHT22;2877;48.238;11.160;2023-09-30T09:02:39;17.00;99.90
5705;DHT22;2877;48.238;11.160;2023-09-30T09:05:05;17.10;99.90
5705;DHT22;2877;48.238;11.160;2023-09-30T09:07:32;17.30;99.90
5705;DHT22;2877;48.238;11.160;2023-09-30T09:10:11;17.30;99.90
5705;DHT22;2877;48.238;11.160;2023-09-30T09:12:39;17.10;99.90
5705;DHT22;2877;48.238;11.160;2023-09-30T09:15:07;16.90;99.90
5705;DHT22;2877;48.238;11.160;2023-09-30T09:17:40;16.90;99.90
5705;DHT22;2877;48.238;11.160;2023-09-30T09:20:07;16.90;99.90
5705;DHT22;2877;48.238;11.160;2023-09-30T09:22:41;16.90;99.90
5705;DHT22;2877;48.238;11.160;2023-09-30T09:25:08;17.00;99.90
5705;DHT22;2877;48.238;11.160;2023-09-30T09:27:34;17.00;99.90
5705;DHT22;2877;48.238;11.160;2023-09-30T09:32:52;17.40;99.90
5705;DHT22;2877;48.238;11.160;2023-09-30T09:35:21;17.60;99.90
5705;DHT22;2877;48.238;11.160;2023-09-30T09:40:27;17.80;99.90
5705;DHT22;2877;48.238;11.160;2023-09-30T09:42:54;18.10;99.90
5705;DHT22;2877;48.238;11.160;2023-09-30T09:45:22;18.30;99.90
5705;DHT22;2877;48.238;11.160;2023-09-30T09:47:52;18.50;99.90
5705;DHT22;2877;48.238;11.160;2023-09-30T09:50:19;18.40;99.90
5705;DHT22;2877;48.238;11.160;2023-09-30T09:52:48;18.10;99.90
5705;DHT22;2877;48.238;11.160;2023-09-30T09:55:19;18.10;99.90
5705;DHT22;2877;48.238;11.160;2023-09-30T09:57:45;18.10;99.90
5705;DHT22;2877;48.238;11.160;2023-09-30T10:00:13;18.10;99.90
5705;DHT22;2877;48.238;11.160;2023-09-30T10:02:41;18.30;99.90
5705;DHT22;2877;48.238;11.160;2023-09-30T10:05:07;18.60;99.90
5705;DHT22;2877;48.238;11.160;2023-09-30T10:07:36;18.50;99.90
5705;DHT22;2877;48.238;11.160;2023-09-30T10:10:07;18.20;99.90
5705;DHT22;2877;48.238;11.160;2023-09-30T10:12:37;18.30;99.90
5705;DHT22;2877;48.238;11.160;2023-09-30T10:18:05;18.50;99.90
5705;DHT22;2877;48.238;11.160;2023-09-30T10:20:41;18.10;99.90
5705;DHT22;2877;48.238;11.160;2023-09-30T10:23:23;18.00;99.90
5705;DHT22;2877;48.238;11.160;2023-09-30T10:25:52;18.00;99.90
5705;DHT22;2877;48.238;11.160;2023-09-30T10:28:39;18.10;99.90
5705;DHT22;2877;48.238;11.160;2023-09-30T10:36:37;18.60;99.90
5705;DHT22;2877;48.238;11.160;2023-09-30T10:39:04;18.50;99.90
5705;DHT22;2877;48.238;11.160;2023-09-30T10:46:52;18.90;99.90
5705;DHT22;2877;48.238;11.160;2023-09-30T10:51:54;19.30;99.90
5705;DHT22;2877;48.238;11.160;2023-09-30T10:54:38;19.10;99.90
5705;DHT22;2877;48.238;11.160;2023-09-30T10:57:03;19.00;99.90
5705;DHT22;2877;48.238;11.160;2023-09-30T10:59:30;19.00;99.90
5705;DHT22;2877;48.238;11.160;2023-09-30T11:01:56;19.20;99.90
5705;DHT22;2877;48.238;11.160;2023-09-30T11:04:22;19.10;99.90
5705;DHT22;2877;48.238;11.160;2023-09-30T11:06:48;18.90;99.90
5705;DHT22;2877;48.238;11.160;2023-09-30T11:09:16;18.90;99.90
5705;DHT22;2877;48.238;11.160;2023-09-30T11:11:44;18.90;99.90
5705;DHT22;2877;48.238;11.160;2023-09-30T11:14:29;19.00;99.90
5705;DHT22;2877;48.238;11.160;2023-09-30T11:16:58;19.10;99.90
5705;DHT22;2877;48.238;11.160;2023-09-30T11:19:25;19.00;99.90
5705;DHT22;2877;48.238;11.160;2023-09-30T11:21:52;19.20;99.90
5705;DHT22;2877;48.238;11.160;2023-09-30T11:24:18;19.50;99.90
5705;DHT22;2877;48.238;11.160;2023-09-30T11:26:45;19.30;99.90
5705;DHT22;2877;48.238;11.160;2023-09-30T11:29:12;19.30;99.90
5705;DHT22;2877;48.238;11.160;2023-09-30T11:31:42;19.50;99.90
5705;DHT22;2877;48.238;11.160;2023-09-30T11:34:09;19.50;99.90
5705;DHT22;2877;48.238;11.160;2023-09-30T11:36:40;19.80;99.90
5705;DHT22;2877;48.238;11.160;2023-09-30T11:39:08;19.80;99.90
5705;DHT22;2877;48.238;11.160;2023-09-30T11:41:39;20.10;99.90
5705;DHT22;2877;48.238;11.160;2023-09-30T11:44:05;20.40;99.90
5705;DHT22;2877;48.238;11.160;2023-09-30T11:46:46;20.80;99.90
5705;DHT22;2877;48.238;11.160;2023-09-30T11:49:13;21.20;99.90
5705;DHT22;2877;48.238;11.160;2023-09-30T11:51:44;21.40;99.90
5705;DHT22;2877;48.238;11.160;2023-09-30T11:54:14;21.10;99.90
5705;DHT22;2877;48.238;11.160;2023-09-30T11:56:40;20.80;99.90
5705;DHT22;2877;48.238;11.160;2023-09-30T11:59:05;20.30;99.90
5705;DHT22;2877;48.238;11.160;2023-09-30T12:01:31;20.10;99.90
5705;DHT22;2877;48.238;11.160;2023-09-30T12:04:00;20.00;99.90
5705;DHT22;2877;48.238;11.160;2023-09-30T12:06:26;20.00;99.90
5705;DHT22;2877;48.238;11.160;2023-09-30T12:08:52;20.00;99.90
5705;DHT22;2877;48.238;11.160;2023-09-30T12:11:18;20.00;99.90
5705;DHT22;2877;48.238;11.160;2023-09-30T12:13:44;20.30;99.90
5705;DHT22;2877;48.238;11.160;2023-09-30T12:16:10;20.60;99.90
5705;DHT22;2877;48.238;11.160;2023-09-30T12:18:38;20.50;99.90
5705;DHT22;2877;48.238;11.160;2023-09-30T12:21:04;20.90;99.90
5705;DHT22;2877;48.238;11.160;2023-09-30T12:23:31;21.40;99.90
5705;DHT22;2877;48.238;11.160;2023-09-30T12:25:57;22.00;99.90
5705;DHT22;2877;48.238;11.160;2023-09-30T12:28:22;22.20;99.90
5705;DHT22;2877;48.238;11.160;2023-09-30T12:30:48;22.30;99.90
5705;DHT22;2877;48.238;11.160;2023-09-30T12:33:14;22.50;99.90
5705;DHT22;2877;48.238;11.160;2023-09-30T12:35:39;22.30;99.90
5705;DHT22;2877;48.238;11.160;2023-09-30T12:38:05;21.80;99.90
5705;DHT22;2877;48.238;11.160;2023-09-30T12:40:30;21.20;99.90
5705;DHT22;2877;48.238;11.160;2023-09-30T12:42:56;21.00;99.90
5705;DHT22;2877;48.238;11.160;2023-09-30T12:45:23;20.50;99.90
5705;DHT22;2877;48.238;11.160;2023-09-30T12:47:48;20.20;99.90
5705;DHT22;2877;48.238;11.160;2023-09-30T12:50:17;20.00;99.90
5705;DHT22;2877;48.238;11.160;2023-09-30T12:52:43;20.00;99.90
5705;DHT22;2877;48.238;11.160;2023-09-30T12:55:09;20.10;99.90
5705;DHT22;2877;48.238;11.160;2023-09-30T12:57:36;20.30;99.90
5705;DHT22;2877;48.238;11.160;2023-09-30T13:00:02;21.00;99.90
5705;DHT22;2877;48.238;11.160;2023-09-30T13:02:29;20.90;99.90
5705;DHT22;2877;48.238;11.160;2023-09-30T13:04:54;20.90;99.90
5705;DHT22;2877;48.238;11.160;2023-09-30T13:07:20;20.90;99.90
5705;DHT22;2877;48.238;11.160;2023-09-30T13:09:45;20.80;99.90
5705;DHT22;2877;48.238;11.160;2023-09-30T13:12:11;21.00;99.90
5705;DHT22;2877;48.238;11.160;2023-09-30T13:14:37;21.00;99.90
5705;DHT22;2877;48.238;11.160;2023-09-30T13:17:04;20.60;99.60
5705;DHT22;2877;48.238;11.160;2023-09-30T13:19:29;20.30;99.90
5705;DHT22;2877;48.238;11.160;2023-09-30T13:21:55;20.50;99.90
5705;DHT22;2877;48.238;11.160;2023-09-30T13:24:21;21.10;99.90
5705;DHT22;2877;48.238;11.160;2023-09-30T13:26:47;21.20;99.10
5705;DHT22;2877;48.238;11.160;2023-09-30T13:29:15;21.70;98.80
5705;DHT22;2877;48.238;11.160;2023-09-30T13:31:42;22.10;98.20
5705;DHT22;2877;48.238;11.160;2023-09-30T13:34:08;22.00;98.00
5705;DHT22;2877;48.238;11.160;2023-09-30T13:36:33;21.80;97.70
5705;DHT22;2877;48.238;11.160;2023-09-30T13:38:59;21.30;98.20
5705;DHT22;2877;48.238;11.160;2023-09-30T13:41:24;21.10;99.40
5705;DHT22;2877;48.238;11.160;2023-09-30T13:43:50;21.00;99.90
5705;DHT22;2877;48.238;11.160;2023-09-30T13:46:15;20.90;98.90
5705;DHT22;2877;48.238;11.160;2023-09-30T13:48:42;20.90;99.90
5705;DHT22;2877;48.238;11.160;2023-09-30T13:51:10;21.00;99.80
5705;DHT22;2877;48.238;11.160;2023-09-30T13:53:38;20.90;99.90
5705;DHT22;2877;48.238;11.160;2023-09-30T13:56:04;20.90;99.60
5705;DHT22;2877;48.238;11.160;2023-09-30T13:58:31;20.80;99.90
5705;DHT22;2877;48.238;11.160;2023-09-30T14:00:57;20.80;99.50
5705;DHT22;2877;48.238;11.160;2023-09-30T14:03:23;20.40;99.70
5705;DHT22;2877;48.238;11.160;2023-09-30T14:05:51;20.30;99.90
5705;DHT22;2877;48.238;11.160;2023-09-30T14:08:18;20.20;99.90
5705;DHT22;2877;48.238;11.160;2023-09-30T14:10:44;20.10;99.90
5705;DHT22;2877;48.238;11.160;2023-09-30T14:13:10;20.20;99.90
5705;DHT22;2877;48.238;11.160;2023-09-30T14:15:36;20.40;99.90
5705;DHT22;2877;48.238;11.160;2023-09-30T14:18:03;20.50;99.90
5705;DHT22;2877;48.238;11.160;2023-09-30T14:20:29;20.20;99.40
5705;DHT22;2877;48.238;11.160;2023-09-30T14:22:54;20.20;99.90
5705;DHT22;2877;48.238;11.160;2023-09-30T14:25:23;20.10;99.60
5705;DHT22;2877;48.238;11.160;2023-09-30T14:27:49;20.00;99.90
5705;DHT22;2877;48.238;11.160;2023-09-30T14:30:15;20.20;99.90
5705;DHT22;2877;48.238;11.160;2023-09-30T14:32:41;20.20;99.90
5705;DHT22;2877;48.238;11.160;2023-09-30T14:35:08;20.30;99.90
5705;DHT22;2877;48.238;11.160;2023-09-30T14:37:35;20.30;99.90
5705;DHT22;2877;48.238;11.160;2023-09-30T14:40:00;20.40;99.90
5705;DHT22;2877;48.238;11.160;2023-09-30T14:42:26;20.50;99.90
5705;DHT22;2877;48.238;11.160;2023-09-30T14:44:51;20.50;99.90
5705;DHT22;2877;48.238;11.160;2023-09-30T14:47:17;20.30;99.90
5705;DHT22;2877;48.238;11.160;2023-09-30T14:49:43;20.00;99.90
5705;DHT22;2877;48.238;11.160;2023-09-30T14:52:09;19.80;99.90
5705;DHT22;2877;48.238;11.160;2023-09-30T14:54:35;19.80;99.90
5705;DHT22;2877;48.238;11.160;2023-09-30T14:57:01;19.80;99.90
5705;DHT22;2877;48.238;11.160;2023-09-30T14:59:27;19.80;99.90
5705;DHT22;2877;48.238;11.160;2023-09-30T15:01:52;19.80;99.90
5705;DHT22;2877;48.238;11.160;2023-09-30T15:04:18;19.80;99.90
5705;DHT22;2877;48.238;11.160;2023-09-30T15:06:44;19.80;99.90
5705;DHT22;2877;48.238;11.160;2023-09-30T15:09:11;19.80;99.90
5705;DHT22;2877;48.238;11.160;2023-09-30T15:11:37;19.90;99.90
5705;DHT22;2877;48.238;11.160;2023-09-30T15:14:03;20.10;99.90
5705;DHT22;2877;48.238;11.160;2023-09-30T15:16:30;20.20;99.90
5705;DHT22;2877;48.238;11.160;2023-09-30T15:18:56;20.20;99.90
5705;DHT22;2877;48.238;11.160;2023-09-30T15:21:22;20.20;99.90
5705;DHT22;2877;48.238;11.160;2023-09-30T15:23:49;20.10;99.90
5705;DHT22;2877;48.238;11.160;2023-09-30T15:26:15;20.00;99.90
5705;DHT22;2877;48.238;11.160;2023-09-30T15:28:41;19.90;99.90
5705;DHT22;2877;48.238;11.160;2023-09-30T15:31:07;19.80;99.90
5705;DHT22;2877;48.238;11.160;2023-09-30T15:33:33;19.70;99.90
5705;DHT22;2877;48.238;11.160;2023-09-30T15:35:59;19.60;99.90
5705;DHT22;2877;48.238;11.160;2023-09-30T15:38:25;19.60;99.90
5705;DHT22;2877;48.238;11.160;2023-09-30T15:40:53;19.40;99.90
5705;DHT22;2877;48.238;11.160;2023-09-30T15:43:19;19.40;99.90
5705;DHT22;2877;48.238;11.160;2023-09-30T15:45:45;19.30;99.90
5705;DHT22;2877;48.238;11.160;2023-09-30T15:48:11;19.20;99.90
5705;DHT22;2877;48.238;11.160;2023-09-30T15:50:38;19.10;99.90
5705;DHT22;2877;48.238;11.160;2023-09-30T15:53:03;19.10;99.90
5705;DHT22;2877;48.238;11.160;2023-09-30T15:55:29;19.00;99.90
5705;DHT22;2877;48.238;11.160;2023-09-30T15:57:54;18.90;99.90
5705;DHT22;2877;48.238;11.160;2023-09-30T16:00:20;18.80;99.90
5705;DHT22;2877;48.238;11.160;2023-09-30T16:02:45;18.70;99.90